Captain Ron L — WDD5492 — position and weather

sailwx.info

Track history (hours):
 
Tides and Currents Weather Stations Pressure Air Temp Water Temp Dewpoint Dewpoint Depression Visibility Wind Speed Wind Dir Waves Ship Positions

Captain Ron L

Owner: Vulcan Materials Company, Richmond, VA. More information available from US FCC via Universal Licensing System and Coast Guard Vessel Documentation Center.

Last reported at 2017-Dec-11 17:01 UTC. Time now 2017-Dec-12 21:55 UTC.
Position N 36°50' W 076°15'.

Length 16 m; draft 2.3 m.

Type: Tug. MMSI: 367159130.

Date/timePositionNaut miles runAvg speedWind from/ knotsBaromVisibWave heightAir tempDewpointWater temp
2017-Dec-11 17:01N 36°50' W 076°15'0 0.1
2017-Dec-11 16:31N 36°50' W 076°15'0 0.6
2017-Dec-11 16:01N 36°50' W 076°15'0 0.7
2017-Dec-11 15:30N 36°50' W 076°15'0 0.0
2017-Dec-11 15:00N 36°50' W 076°15'0 0.0
2017-Dec-11 14:30N 36°50' W 076°15'1 1.5
2017-Dec-11 14:01N 36°50' W 076°16'1 1.2
2017-Dec-11 13:31N 36°50' W 076°15'0 0.2
2017-Dec-11 13:01N 36°50' W 076°15'0 0.0
2017-Dec-11 12:31N 36°50' W 076°15'0 0.0
2017-Dec-11 12:01N 36°50' W 076°15'2 3.9
2017-Dec-11 11:31N 36°50' W 076°17'0 0.0
2017-Dec-09 17:53N 36°50' W 076°17'1 2.2
2017-Dec-09 17:30N 36°50' W 076°16'0 1.0
2017-Dec-09 17:00N 36°50' W 076°16'0 0.2
2017-Dec-09 16:30N 36°50' W 076°16'1 1.9
2017-Dec-09 16:00N 36°50' W 076°15'1 1.7
2017-Dec-09 15:27N 36°50' W 076°16'0 0.0
2017-Dec-09 14:52N 36°50' W 076°16'0 0.0
2017-Dec-09 14:30N 36°50' W 076°16'0 0.1
2017-Dec-09 14:00N 36°50' W 076°16'1 1.7
2017-Dec-09 13:30N 36°50' W 076°15'2 3.1
2017-Dec-09 13:00N 36°50' W 076°17'1 0.0
2017-Dec-08 20:47N 36°50' W 076°17'1 3.2
2017-Dec-08 20:30N 36°50' W 076°16'1 1.0
2017-Dec-08 20:00N 36°50' W 076°16'0 0.5
2017-Dec-08 19:30N 36°50' W 076°15'0 0.6
2017-Dec-08 19:00N 36°50' W 076°16'0 0.0
2017-Dec-08 18:13N 36°50' W 076°16'0 0.0
2017-Dec-08 18:00N 36°50' W 076°16'1 1.8
2017-Dec-08 17:30N 36°50' W 076°15'1 1.8
2017-Dec-08 17:00N 36°50' W 076°16'0 0.0
2017-Dec-08 16:30N 36°50' W 076°16'0 0.0
2017-Dec-08 16:00N 36°50' W 076°16'0 0.0
2017-Dec-08 15:30N 36°50' W 076°16'1 1.8
2017-Dec-08 15:00N 36°50' W 076°15'1 1.6
2017-Dec-08 14:30N 36°50' W 076°16'2 4.4
2017-Dec-08 14:01N 36°49' W 076°17'2 4.5
2017-Dec-08 13:30N 36°46' W 076°18'0 0.2
2017-Dec-08 13:00N 36°46' W 076°18'2 4.0
2017-Dec-08 12:31N 36°44' W 076°18'3 5.2
2017-Dec-08 12:00N 36°47' W 076°18'2 4.5
2017-Dec-08 11:30N 36°49' W 076°17'1 0.0
2017-Dec-06 21:30N 36°50' W 076°17'0 0.5
2017-Dec-06 21:00N 36°51' W 076°17'  
2017-Dec-01 23:08N 36°50' W 076°17'0 1.6
2017-Dec-01 23:00N 36°51' W 076°17'1 2.4
2017-Dec-01 22:29N 36°50' W 076°16'0 0.0
2017-Dec-01 22:00N 36°50' W 076°16'0 0.0
2017-Dec-01 21:28N 36°50' W 076°16'0 0.0
2017-Dec-01 21:00N 36°50' W 076°16'0 0.0
2017-Dec-01 20:30N 36°50' W 076°16'0 0.1
2017-Dec-01 20:01N 36°50' W 076°16'0 0.8
2017-Dec-01 19:30N 36°50' W 076°15'0 0.7
2017-Dec-01 19:00N 36°50' W 076°16'0 0.1
2017-Dec-01 18:30N 36°50' W 076°16'0 0.0
2017-Dec-01 18:00N 36°50' W 076°16'0 0.1
2017-Dec-01 17:30N 36°50' W 076°16'  
Track history (hours):
 
Tides and Currents Weather Stations Pressure Air Temp Water Temp Dewpoint Dewpoint Depression Visibility Wind Speed Wind Dir Waves Ship Positions

Captain Ron L

Owner: Vulcan Materials Company, Richmond, VA. More information available from US FCC via Universal Licensing System and Coast Guard Vessel Documentation Center.

Last reported at 2017-Dec-11 17:01 UTC. Time now 2017-Dec-12 21:55 UTC.
Position N 36°50' W 076°15'.

Length 16 m; draft 2.3 m.

Type: Tug. MMSI: 367159130.

Date/timePositionNaut miles runAvg speedWind from/ knotsBaromVisibWave heightAir tempDewpointWater temp
2017-Dec-11 17:01N 36°50' W 076°15'0 0.1
2017-Dec-11 16:31N 36°50' W 076°15'0 0.6
2017-Dec-11 16:01N 36°50' W 076°15'0 0.7
2017-Dec-11 15:30N 36°50' W 076°15'0 0.0
2017-Dec-11 15:00N 36°50' W 076°15'0 0.0
2017-Dec-11 14:30N 36°50' W 076°15'1 1.5
2017-Dec-11 14:01N 36°50' W 076°16'1 1.2
2017-Dec-11 13:31N 36°50' W 076°15'0 0.2
2017-Dec-11 13:01N 36°50' W 076°15'0 0.0
2017-Dec-11 12:31N 36°50' W 076°15'0 0.0
2017-Dec-11 12:01N 36°50' W 076°15'2 3.9
2017-Dec-11 11:31N 36°50' W 076°17'0 0.0
2017-Dec-09 17:53N 36°50' W 076°17'1 2.2
2017-Dec-09 17:30N 36°50' W 076°16'0 1.0
2017-Dec-09 17:00N 36°50' W 076°16'0 0.2
2017-Dec-09 16:30N 36°50' W 076°16'1 1.9
2017-Dec-09 16:00N 36°50' W 076°15'1 1.7
2017-Dec-09 15:27N 36°50' W 076°16'0 0.0
2017-Dec-09 14:52N 36°50' W 076°16'0 0.0
2017-Dec-09 14:30N 36°50' W 076°16'0 0.1
2017-Dec-09 14:00N 36°50' W 076°16'1 1.7
2017-Dec-09 13:30N 36°50' W 076°15'2 3.1
2017-Dec-09 13:00N 36°50' W 076°17'1 0.0
2017-Dec-08 20:47N 36°50' W 076°17'1 3.2
2017-Dec-08 20:30N 36°50' W 076°16'1 1.0
2017-Dec-08 20:00N 36°50' W 076°16'0 0.5
2017-Dec-08 19:30N 36°50' W 076°15'0 0.6
2017-Dec-08 19:00N 36°50' W 076°16'0 0.0
2017-Dec-08 18:13N 36°50' W 076°16'0 0.0
2017-Dec-08 18:00N 36°50' W 076°16'1 1.8
2017-Dec-08 17:30N 36°50' W 076°15'1 1.8
2017-Dec-08 17:00N 36°50' W 076°16'0 0.0
2017-Dec-08 16:30N 36°50' W 076°16'0 0.0
2017-Dec-08 16:00N 36°50' W 076°16'0 0.0
2017-Dec-08 15:30N 36°50' W 076°16'1 1.8
2017-Dec-08 15:00N 36°50' W 076°15'1 1.6
2017-Dec-08 14:30N 36°50' W 076°16'2 4.4
2017-Dec-08 14:01N 36°49' W 076°17'2 4.5
2017-Dec-08 13:30N 36°46' W 076°18'0 0.2
2017-Dec-08 13:00N 36°46' W 076°18'2 4.0
2017-Dec-08 12:31N 36°44' W 076°18'3 5.2
2017-Dec-08 12:00N 36°47' W 076°18'2 4.5
2017-Dec-08 11:30N 36°49' W 076°17'1 0.0
2017-Dec-06 21:30N 36°50' W 076°17'0 0.5
2017-Dec-06 21:00N 36°51' W 076°17'  
2017-Dec-01 23:08N 36°50' W 076°17'0 1.6
2017-Dec-01 23:00N 36°51' W 076°17'1 2.4
2017-Dec-01 22:29N 36°50' W 076°16'0 0.0
2017-Dec-01 22:00N 36°50' W 076°16'0 0.0
2017-Dec-01 21:28N 36°50' W 076°16'0 0.0
2017-Dec-01 21:00N 36°50' W 076°16'0 0.0
2017-Dec-01 20:30N 36°50' W 076°16'0 0.1
2017-Dec-01 20:01N 36°50' W 076°16'0 0.8
2017-Dec-01 19:30N 36°50' W 076°15'0 0.7
2017-Dec-01 19:00N 36°50' W 076°16'0 0.1
2017-Dec-01 18:30N 36°50' W 076°16'0 0.0
2017-Dec-01 18:00N 36°50' W 076°16'0 0.1
2017-Dec-01 17:30N 36°50' W 076°16'  

Dump ship's entire track history